aviador You're here:

UBBL Decoded Metar

in
Report Time2018-07-16 13:00:00
UTC Time2018-07-16 13:59:34
Flight Rules vfr VFR
Wind110° at 12 kt
W.Decomp.*RWY 15: 9.2 kt HW 7.7 kt LCW
W.Rank110° ranks 10
Current wind is above 110° avg. (6.3)
Visibility9999 m
Phenomena:N/A
Clouds:N/A
Expected CloudBase > 3,200 ft AGL from Temp-Dew spread
CeilingNone
Temp31°C
Dew Point23°C (62% RH)
Heat Index35.4°C
QNH1001 hPa
Raw Report
METAR UBBL 161300Z 11012KT 9999 NSC 31/23 Q1001
R33/CLRD// NOSIG RMK MT OP=

Extra information for UBBL:More info

Social comments